Time;durP1;ratioP1;P1;durP2;ratioP2;P2;SDS_P1;SDS_P2;PMS_P1;PMS_P2;Temp;Humidity;BMP_temperature;BMP_pressure;BME280_temperature;BME280_humidity;BME280_pressure;Samples;Min_cycle;Max_cycle;Signal;HPM_P1;HPM_P2
2021/08/06 00:01:29;;;;;;;0.70;0.55;;;;;;;15.75;83.90;95595.30;1826464;77;26314;-83
2021/08/06 00:03:56;;;;;;;0.47;0.47;;;;;;;15.78;83.84;95595.27;1826476;77;27355;-83
2021/08/06 00:06:27;;;;;;;4.12;0.88;;;;;;;15.76;83.70;95586.58;1825687;77;25763;-83
2021/08/06 00:08:52;;;;;;;0.50;0.50;;;;;;;15.74;83.64;95586.05;1826273;77;26585;-84
2021/08/06 00:11:18;;;;;;;0.70;0.70;;;;;;;15.73;83.61;95585.79;1826567;77;25771;-84
2021/08/06 00:13:45;;;;;;;0.62;0.62;;;;;;;15.73;83.60;95592.59;1826616;77;25775;-84
2021/08/06 00:16:11;;;;;;;1.17;0.75;;;;;;;15.73;83.57;95598.03;1826546;77;27965;-84
2021/08/06 00:18:38;;;;;;;0.70;0.70;;;;;;;15.71;83.52;95594.23;1826551;77;25680;-89
2021/08/06 00:21:05;;;;;;;0.90;0.50;;;;;;;15.70;83.36;95601.31;1825010;77;25865;-95
2021/08/06 00:23:31;;;;;;;0.50;0.50;;;;;;;15.69;83.38;95600.53;1827007;77;26502;-83
2021/08/06 00:25:58;;;;;;;0.65;0.53;;;;;;;15.70;83.40;95604.04;1826685;77;25746;-94
2021/08/06 00:28:25;;;;;;;0.95;0.60;;;;;;;15.72;83.40;95605.92;1826825;77;27350;-93
2021/08/06 00:30:51;;;;;;;0.60;0.60;;;;;;;15.73;83.37;95604.83;1826479;77;25735;-87
2021/08/06 00:33:18;;;;;;;0.80;0.65;;;;;;;15.70;83.27;95608.93;1821698;77;26444;-85
2021/08/06 00:35:44;;;;;;;0.60;0.60;;;;;;;15.66;83.21;95606.55;1826657;77;26380;-87
2021/08/06 00:38:12;;;;;;;0.65;0.57;;;;;;;15.64;83.23;95607.92;1826550;77;25716;-91
2021/08/06 00:40:38;;;;;;;0.90;0.40;;;;;;;15.65;83.32;95619.06;1826219;77;27413;-83
2021/08/06 00:43:05;;;;;;;0.45;0.45;;;;;;;15.62;83.16;95612.83;1826431;77;25765;-87
2021/08/06 00:45:32;;;;;;;1.30;0.55;;;;;;;15.61;83.16;95618.00;1825167;77;25680;-86
2021/08/06 00:47:58;;;;;;;0.65;0.30;;;;;;;15.58;83.13;95613.16;1826657;77;26306;-84
2021/08/06 00:50:25;;;;;;;0.85;0.50;;;;;;;15.53;83.09;95613.98;1826509;77;25724;-91
2021/08/06 00:52:52;;;;;;;0.40;0.40;;;;;;;15.53;83.15;95616.70;1826576;77;27313;-92
2021/08/06 00:55:19;;;;;;;0.62;0.62;;;;;;;15.55;83.10;95619.16;1819546;77;25734;-85
2021/08/06 00:57:46;;;;;;;0.65;0.65;;;;;;;15.53;82.97;95628.12;1826732;77;25670;-81
2021/08/06 01:00:14;;;;;;;0.70;0.70;;;;;;;15.52;83.01;95627.85;1826857;77;26386;-81
2021/08/06 01:03:05;;;;;;;0.88;0.88;;;;;;;15.50;82.92;95626.23;1826144;77;25663;-91
2021/08/06 01:05:37;;;;;;;0.68;0.68;;;;;;;15.46;82.86;95629.24;1823934;77;27416;-84
2021/08/06 01:08:14;;;;;;;0.70;0.70;;;;;;;15.44;82.89;95632.82;1804904;77;25754;-83
2021/08/06 01:10:51;;;;;;;0.75;0.75;;;;;;;15.41;82.84;95626.58;1820939;77;25734;-84
2021/08/06 01:13:23;;;;;;;0.65;0.65;;;;;;;15.39;82.80;95627.95;1819460;77;26044;-83
2021/08/06 01:15:54;;;;;;;0.62;0.50;;;;;;;15.36;82.74;95630.69;1824453;77;32363;-81
2021/08/06 01:18:21;;;;;;;0.45;0.45;;;;;;;15.33;82.73;95629.11;1834435;77;27348;-82
2021/08/06 01:20:55;;;;;;;0.50;0.50;;;;;;;15.33;82.71;95634.55;1813886;77;25301;-82
2021/08/06 01:23:35;;;;;;;0.60;0.50;;;;;;;15.32;82.65;95641.08;1803897;77;25748;-83
2021/08/06 01:26:06;;;;;;;0.57;0.57;;;;;;;15.29;82.61;95642.45;1826740;77;26532;-83
2021/08/06 01:28:37;;;;;;;1.13;0.60;;;;;;;15.27;82.76;95636.48;1820423;77;25723;-84
2021/08/06 01:31:05;;;;;;;0.40;0.40;;;;;;;15.23;82.59;95640.85;1826975;77;27336;-87
2021/08/06 01:33:32;;;;;;;0.50;0.50;;;;;;;15.18;82.61;95647.70;1826225;77;26316;-81
2021/08/06 01:36:00;;;;;;;0.47;0.47;;;;;;;15.18;82.69;95644.98;1821524;77;25703;-86
2021/08/06 01:38:26;;;;;;;1.22;0.57;;;;;;;15.14;82.57;95641.20;1824321;77;25785;-80
2021/08/06 01:41:04;;;;;;;0.70;0.70;;;;;;;15.10;82.53;95653.71;1812919;77;25640;-85
2021/08/06 01:44:06;;;;;;;0.90;0.90;;;;;;;15.06;82.60;95655.39;1825402;77;28396;-84
2021/08/06 01:46:59;;;;;;;1.07;0.98;;;;;;;15.03;82.64;95658.66;1811332;77;25750;-82
2021/08/06 01:49:33;;;;;;;1.32;1.22;;;;;;;15.00;82.70;95661.94;1814617;77;25683;-83
2021/08/06 01:52:11;;;;;;;1.30;1.20;;;;;;;14.99;82.72;95663.84;1827486;77;25838;-83
2021/08/06 01:54:39;;;;;;;1.50;1.40;;;;;;;14.99;82.69;95661.67;1828083;77;25766;-87
2021/08/06 01:57:09;;;;;;;1.17;1.07;;;;;;;14.99;82.75;95671.18;1761684;80;27422;-87
2021/08/06 01:59:37;;;;;;;1.17;1.05;;;;;;;14.98;82.77;95666.84;1760717;81;26237;-85
2021/08/06 02:02:04;;;;;;;0.98;0.98;;;;;;;14.98;82.85;95660.05;1793790;78;25749;-83
2021/08/06 02:04:33;;;;;;;1.72;1.00;;;;;;;14.96;82.78;95656.82;1760784;81;25716;-84
2021/08/06 02:06:59;;;;;;;0.85;0.82;;;;;;;14.93;82.74;95666.88;1772298;79;26132;-85
2021/08/06 02:09:26;;;;;;;1.42;0.80;;;;;;;14.92;82.84;95658.47;1754967;81;27356;-88
2021/08/06 02:11:54;;;;;;;0.95;0.80;;;;;;;14.87;82.90;95666.63;1776584;78;25687;-86
2021/08/06 02:14:21;;;;;;;0.78;0.78;;;;;;;14.84;83.06;95666.67;1758276;80;25737;-85
2021/08/06 02:16:51;;;;;;;0.80;0.57;;;;;;;14.82;83.08;95665.32;1793764;78;25361;-84
2021/08/06 02:19:21;;;;;;;0.40;0.40;;;;;;;14.84;83.17;95667.22;1760774;80;26016;-84
2021/08/06 02:21:55;;;;;;;0.40;0.40;;;;;;;14.88;83.15;95668.26;1794963;78;27362;-83
2021/08/06 02:24:23;;;;;;;0.98;0.57;;;;;;;14.93;83.13;95665.53;1764603;80;26233;-84
2021/08/06 02:26:53;;;;;;;1.15;0.30;;;;;;;14.94;83.17;95675.30;1768487;80;25752;-84
2021/08/06 02:29:22;;;;;;;0.57;0.42;;;;;;;14.95;83.11;95672.85;1744714;81;25755;-83
2021/08/06 02:31:49;;;;;;;0.40;0.40;;;;;;;14.93;83.11;95674.48;1768747;80;25255;-85
2021/08/06 02:34:17;;;;;;;0.40;0.40;;;;;;;14.91;83.00;95670.42;1730722;80;27356;-86
2021/08/06 02:36:47;;;;;;;0.40;0.30;;;;;;;14.90;83.00;95677.76;1767234;80;25371;-90
2021/08/06 02:39:21;;;;;;;0.23;0.23;;;;;;;14.94;82.92;95675.30;1755112;80;25252;-84
2021/08/06 02:41:49;;;;;;;0.57;0.50;;;;;;;14.93;82.88;95685.90;1741424;80;26077;-89
2021/08/06 02:44:17;;;;;;;0.70;0.20;;;;;;;14.91;82.96;95686.72;1762949;80;26404;-83
2021/08/06 02:46:44;;;;;;;0.30;0.30;;;;;;;14.87;83.05;95678.86;1750791;80;27369;-81
2021/08/06 02:49:11;;;;;;;0.42;0.37;;;;;;;14.85;83.13;95681.06;1749216;80;25801;-87
2021/08/06 02:51:38;;;;;;;1.55;0.30;;;;;;;14.83;83.16;95685.95;1756441;79;25302;-84
2021/08/06 02:54:04;;;;;;;0.40;0.35;;;;;;;14.83;83.10;95685.95;1755491;78;25740;-93
2021/08/06 02:56:31;;;;;;;0.20;0.20;;;;;;;14.84;83.11;95680.80;1762352;80;25514;-91
2021/08/06 02:58:58;;;;;;;0.88;0.40;;;;;;;14.88;83.06;95689.98;1756705;80;27353;-82
2021/08/06 03:01:24;;;;;;;0.95;0.40;;;;;;;14.87;83.06;95685.64;1761288;79;25718;-81
2021/08/06 03:03:51;;;;;;;0.60;0.60;;;;;;;14.80;83.08;95681.08;1762427;80;26251;-94
2021/08/06 03:06:18;;;;;;;0.40;0.40;;;;;;;14.69;83.15;95679.77;1744777;80;26156;-83
2021/08/06 03:08:44;;;;;;;0.50;0.50;;;;;;;14.65;83.23;95689.56;1739160;80;25687;-84
2021/08/06 03:11:11;;;;;;;1.72;0.80;;;;;;;14.68;83.32;95689.02;1757321;81;28156;-87
2021/08/06 03:13:37;;;;;;;0.40;0.40;;;;;;;14.67;83.33;95700.15;1790047;78;25263;-84
2021/08/06 03:16:05;;;;;;;0.35;0.30;;;;;;;14.66;83.37;95701.23;1762904;80;25755;-84
2021/08/06 03:18:31;;;;;;;0.50;0.50;;;;;;;14.69;83.41;95702.05;1787912;78;25404;-87
2021/08/06 03:20:58;;;;;;;1.35;0.37;;;;;;;14.72;83.44;95699.59;1743770;80;25734;-83
2021/08/06 03:23:24;;;;;;;0.40;0.40;;;;;;;14.73;83.40;95701.77;1770423;78;28164;-86
2021/08/06 03:25:51;;;;;;;0.30;0.30;;;;;;;14.72;83.42;95697.42;1752282;78;25661;-86
2021/08/06 03:28:18;;;;;;;0.40;0.40;;;;;;;14.75;83.45;95704.98;1762442;80;25840;-82
2021/08/06 03:30:44;;;;;;;0.82;0.50;;;;;;;14.75;83.52;95705.80;1756148;80;25700;-83
2021/08/06 03:33:11;;;;;;;1.15;0.25;;;;;;;14.75;83.56;95707.70;1761727;80;25717;-87
2021/08/06 03:35:38;;;;;;;0.30;0.30;;;;;;;14.76;83.47;95704.72;1762412;80;27341;-86
2021/08/06 03:38:19;;;;;;;0.93;0.50;;;;;;;14.78;83.45;95705.25;1751840;80;25761;-87
2021/08/06 03:40:47;;;;;;;0.50;0.50;;;;;;;14.80;83.45;95704.16;1748294;80;25955;-82
2021/08/06 03:43:15;;;;;;;0.53;0.40;;;;;;;14.84;83.43;95710.13;1761232;80;25764;-91
2021/08/06 03:45:42;;;;;;;1.32;0.30;;;;;;;14.84;83.41;95710.67;1762429;81;25891;-92
2021/08/06 03:48:09;;;;;;;0.68;0.50;;;;;;;14.83;83.37;95704.97;1741757;80;27369;-88
2021/08/06 03:50:37;;;;;;;0.75;0.20;;;;;;;14.80;83.43;95719.10;1756654;80;25776;-83
2021/08/06 03:53:04;;;;;;;0.30;0.20;;;;;;;14.76;83.41;95722.37;1753462;79;25691;-83
2021/08/06 03:55:31;;;;;;;0.10;0.10;;;;;;;14.75;83.30;95718.03;1761233;80;25726;-90
2021/08/06 03:57:59;;;;;;;0.10;0.10;;;;;;;14.75;83.17;95712.59;1757309;81;25746;-92
2021/08/06 04:00:35;;;;;;;0.20;0.10;;;;;;;14.73;83.12;95724.27;1757923;79;27419;-81
2021/08/06 04:03:02;;;;;;;0.40;0.30;;;;;;;14.76;83.12;95729.16;1743113;80;25751;-84
2021/08/06 04:05:28;;;;;;;0.10;0.10;;;;;;;14.75;83.00;95721.28;1754803;80;26542;-94
2021/08/06 04:07:55;;;;;;;1.45;0.30;;;;;;;14.72;82.95;95733.55;1790130;78;25836;-83
2021/08/06 04:10:23;;;;;;;0.10;0.10;;;;;;;14.69;82.97;95735.45;1757432;80;25742;-85
2021/08/06 04:12:51;;;;;;;0.10;0.10;;;;;;;14.63;82.92;95739.26;1784922;78;27616;-87
2021/08/06 04:15:18;;;;;;;0.20;0.20;;;;;;;14.61;82.97;95746.86;1745245;81;25786;-84
2021/08/06 04:17:45;;;;;;;0.25;0.10;;;;;;;14.58;82.83;95748.80;1789629;78;25785;-86
2021/08/06 04:20:12;;;;;;;0.28;0.20;;;;;;;14.57;82.85;95751.23;1757150;81;25427;-81
2021/08/06 04:22:40;;;;;;;0.30;0.10;;;;;;;14.51;82.82;95753.69;1790694;78;25768;-81
2021/08/06 04:25:09;;;;;;;1.02;0.28;;;;;;;14.49;82.90;95755.86;1748877;81;27381;-85
2021/08/06 04:27:36;;;;;;;0.85;0.20;;;;;;;14.46;83.04;95759.15;1788420;78;26463;-82
2021/08/06 04:30:05;;;;;;;1.07;0.30;;;;;;;14.44;83.09;95765.94;1757433;81;25328;-91
2021/08/06 04:32:32;;;;;;;2.65;0.30;;;;;;;14.45;83.28;95765.66;1790431;78;25829;-88
2021/08/06 04:35:00;;;;;;;0.68;0.45;;;;;;;14.49;83.16;95764.58;1736310;81;25723;-87
2021/08/06 04:37:27;;;;;;;0.53;0.42;;;;;;;14.48;82.91;95769.19;1790831;78;27324;-92
2021/08/06 04:39:53;;;;;;;1.92;0.53;;;;;;;14.49;82.87;95772.15;1757348;80;25792;-86
2021/08/06 04:42:20;;;;;;;0.88;0.57;;;;;;;14.50;82.76;95773.78;1790354;78;25800;-88
2021/08/06 04:44:47;;;;;;;0.57;0.50;;;;;;;14.47;82.61;95779.78;1760423;80;25705;-83
2021/08/06 04:47:14;;;;;;;0.53;0.50;;;;;;;14.45;82.59;95779.23;1761850;80;25701;-85
2021/08/06 04:49:40;;;;;;;1.55;0.60;;;;;;;14.40;82.62;95781.95;1762137;80;27397;-84
2021/08/06 04:52:08;;;;;;;0.55;0.55;;;;;;;14.39;82.75;95785.20;1761692;80;25804;-84
2021/08/06 04:54:34;;;;;;;1.42;0.60;;;;;;;14.39;82.66;95788.43;1761222;80;25728;-87
2021/08/06 04:57:01;;;;;;;0.50;0.50;;;;;;;14.37;82.53;95793.31;1792456;78;25716;-82
2021/08/06 04:59:28;;;;;;;0.60;0.60;;;;;;;14.36;82.58;95796.61;1759954;81;25671;-83
2021/08/06 05:01:54;;;;;;;0.53;0.53;;;;;;;14.35;82.67;95799.59;1789477;78;27444;-82
2021/08/06 05:04:21;;;;;;;2.50;0.55;;;;;;;14.36;82.67;95797.96;1738982;81;25912;-85
2021/08/06 05:06:48;;;;;;;0.62;0.62;;;;;;;14.39;82.68;95803.36;1793004;79;25834;-82
2021/08/06 05:09:14;;;;;;;0.60;0.60;;;;;;;14.38;82.64;95805.80;1759906;81;25891;-84
2021/08/06 05:11:41;;;;;;;0.70;0.70;;;;;;;14.39;82.71;95810.99;1755701;80;25769;-85
2021/08/06 05:14:07;;;;;;;0.60;0.60;;;;;;;14.38;82.84;95816.13;1744795;80;27359;-82
2021/08/06 05:16:34;;;;;;;0.40;0.40;;;;;;;14.40;82.85;95813.16;1736194;80;25773;-83
2021/08/06 05:19:01;;;;;;;1.35;0.60;;;;;;;14.41;82.78;95814.25;1756312;80;25789;-82
2021/08/06 05:21:28;;;;;;;0.60;0.60;;;;;;;14.43;82.67;95818.05;1744902;80;26395;-82
2021/08/06 05:23:54;;;;;;;1.02;0.68;;;;;;;14.43;82.70;95818.59;1753425;80;25742;-82
2021/08/06 05:26:21;;;;;;;0.75;0.40;;;;;;;14.44;82.75;95820.23;1765084;80;27362;-83
2021/08/06 05:28:47;;;;;;;0.80;0.80;;;;;;;14.41;82.62;95831.90;1765119;81;25876;-83
2021/08/06 05:31:14;;;;;;;0.50;0.50;;;;;;;14.41;82.68;95821.59;1764415;80;25911;-82
2021/08/06 05:33:41;;;;;;;0.88;0.60;;;;;;;14.41;82.72;95823.75;1764628;80;26158;-84
2021/08/06 05:36:07;;;;;;;0.70;0.60;;;;;;;14.45;82.67;95824.03;1765585;79;25771;-89
2021/08/06 05:38:34;;;;;;;0.47;0.47;;;;;;;14.47;82.55;95838.15;1764712;80;27364;-83
2021/08/06 05:41:02;;;;;;;0.72;0.50;;;;;;;14.49;82.51;95831.87;1763303;79;25722;-83
2021/08/06 05:43:29;;;;;;;0.75;0.62;;;;;;;14.49;82.47;95831.09;1762933;79;25766;-83
2021/08/06 05:45:55;;;;;;;0.65;0.57;;;;;;;14.49;82.41;95833.81;1739678;80;25732;-83
2021/08/06 05:48:22;;;;;;;1.75;0.90;;;;;;;14.51;82.49;95840.56;1780115;78;25832;-82
2021/08/06 05:50:49;;;;;;;0.50;0.50;;;;;;;14.54;82.42;95841.93;1757518;81;27344;-83
2021/08/06 05:53:15;;;;;;;1.25;0.90;;;;;;;14.51;82.24;95844.64;1761040;80;25734;-83
2021/08/06 05:55:42;;;;;;;0.40;0.40;;;;;;;14.52;82.31;95853.05;1759810;80;25905;-82
2021/08/06 05:58:09;;;;;;;0.68;0.50;;;;;;;14.50;82.31;95852.52;1742215;81;26429;-78
2021/08/06 06:00:35;;;;;;;0.60;0.40;;;;;;;14.51;82.25;95851.42;1761716;80;25686;-83
2021/08/06 06:03:02;;;;;;;0.50;0.50;;;;;;;14.51;82.22;95858.76;1761778;80;26823;-80
2021/08/06 06:05:29;;;;;;;1.02;0.40;;;;;;;14.51;82.27;95856.05;1772204;78;26263;-83
2021/08/06 06:07:55;;;;;;;0.35;0.30;;;;;;;14.49;82.20;95861.73;1756027;79;25799;-82
2021/08/06 06:10:23;;;;;;;0.37;0.33;;;;;;;14.49;82.17;95865.03;1757797;79;26175;-82
2021/08/06 06:12:51;;;;;;;4.05;0.80;;;;;;;14.51;82.28;95866.36;1759575;79;25748;-82
2021/08/06 06:15:18;;;;;;;0.55;0.55;;;;;;;14.55;82.40;95867.45;1757218;79;27359;-81
2021/08/06 06:17:47;;;;;;;0.40;0.40;;;;;;;14.55;82.33;95862.56;1768850;79;25795;-85
2021/08/06 06:20:17;;;;;;;0.33;0.33;;;;;;;14.59;82.36;95871.26;1757600;78;25712;-81
2021/08/06 06:22:44;;;;;;;0.10;0.10;;;;;;;14.63;82.30;95867.43;1761227;78;25787;-82
2021/08/06 06:25:11;;;;;;;0.40;0.40;;;;;;;14.65;82.22;95866.08;1772711;79;25748;-83
2021/08/06 06:27:52;;;;;;;1.30;0.30;;;;;;;14.69;82.21;95875.86;1773906;78;27412;-81
2021/08/06 06:30:22;;;;;;;2.12;0.30;;;;;;;14.70;82.18;95874.23;1758414;79;25691;-83
2021/08/06 06:32:49;;;;;;;0.55;0.40;;;;;;;14.70;81.98;95871.51;1769111;78;25781;-83
2021/08/06 06:35:16;;;;;;;0.30;0.20;;;;;;;14.69;82.09;95867.16;1770417;78;26160;-83
2021/08/06 06:37:42;;;;;;;0.30;0.30;;;;;;;14.69;82.20;95871.78;1751924;80;25253;-81
2021/08/06 06:40:11;;;;;;;0.30;0.30;;;;;;;14.71;82.27;95874.50;1747375;80;27205;-81
2021/08/06 06:42:37;;;;;;;0.85;0.42;;;;;;;14.73;82.16;95873.66;1732614;81;26203;-83
2021/08/06 06:45:05;;;;;;;0.30;0.25;;;;;;;14.70;82.08;95873.41;1739244;80;25738;-83
2021/08/06 06:47:46;;;;;;;1.80;0.70;;;;;;;14.68;81.98;95876.39;1757284;80;26014;-82
2021/08/06 06:50:17;;;;;;;0.20;0.20;;;;;;;14.72;81.99;95877.48;1756045;81;25827;-84
2021/08/06 06:52:44;;;;;;;1.37;0.20;;;;;;;14.77;82.02;95885.61;1758341;80;27469;-84
2021/08/06 06:55:12;;;;;;;0.50;0.30;;;;;;;14.77;81.91;95885.61;1729115;81;25841;-79
2021/08/06 06:57:51;;;;;;;1.00;0.55;;;;;;;14.78;81.86;95884.52;1787557;78;26287;-83
2021/08/06 07:00:21;;;;;;;2.35;0.50;;;;;;;14.77;81.73;95895.11;1756041;81;25730;-82
2021/08/06 07:02:48;;;;;;;0.20;0.20;;;;;;;14.70;81.54;95897.31;1789143;78;25833;-82
2021/08/06 07:05:16;;;;;;;0.50;0.50;;;;;;;14.67;81.58;95898.39;1757292;81;27374;-83
2021/08/06 07:07:43;;;;;;;0.20;0.20;;;;;;;14.67;81.58;95900.56;1772846;78;25822;-81
2021/08/06 07:10:11;;;;;;;0.42;0.30;;;;;;;14.65;81.42;95902.73;1756496;81;25747;-82
2021/08/06 07:12:39;;;;;;;0.98;0.33;;;;;;;14.64;81.53;95898.94;1747935;80;25742;-83
2021/08/06 07:15:08;;;;;;;0.42;0.42;;;;;;;14.65;81.61;95910.88;1794553;78;25731;-82
2021/08/06 07:17:37;;;;;;;0.37;0.33;;;;;;;14.65;81.59;95916.31;1790059;78;28673;-85
2021/08/06 07:20:07;;;;;;;0.47;0.42;;;;;;;14.65;81.85;95914.95;1781768;79;25875;-89
2021/08/06 07:22:34;;;;;;;0.62;0.40;;;;;;;14.64;81.91;95913.87;1751052;80;25827;-82
2021/08/06 07:25:01;;;;;;;0.98;0.70;;;;;;;14.63;81.83;95914.41;1757179;81;25769;-82
2021/08/06 07:27:27;;;;;;;0.30;0.30;;;;;;;14.67;82.00;95916.86;1784957;78;25838;-81
2021/08/06 07:29:54;;;;;;;0.50;0.50;;;;;;;14.72;81.89;95915.52;1756652;81;27443;-81
2021/08/06 07:32:20;;;;;;;1.05;1.00;;;;;;;14.75;81.69;95919.02;1794206;78;25798;-84
2021/08/06 07:34:47;;;;;;;1.10;1.10;;;;;;;14.75;81.56;95935.86;1753047;79;25766;-83
2021/08/06 07:37:14;;;;;;;1.22;1.10;;;;;;;14.72;81.29;95937.23;1757167;80;25777;-87
2021/08/06 07:39:41;;;;;;;1.30;1.17;;;;;;;14.64;81.14;95928.27;1762272;80;25750;-86
2021/08/06 07:42:07;;;;;;;1.65;1.35;;;;;;;14.61;81.13;95935.59;1756703;81;27461;-82
2021/08/06 07:44:34;;;;;;;3.22;1.85;;;;;;;14.59;81.09;95932.36;1754741;81;25742;-87
2021/08/06 07:47:01;;;;;;;1.50;1.37;;;;;;;14.58;81.11;95940.23;1734256;81;26366;-88
2021/08/06 07:49:28;;;;;;;1.98;1.00;;;;;;;14.61;81.17;95945.66;1741261;81;26149;-83
2021/08/06 07:51:55;;;;;;;2.12;1.12;;;;;;;14.61;81.01;95945.66;1760945;80;25814;-82
2021/08/06 07:54:22;;;;;;;1.27;1.05;;;;;;;14.58;81.00;95943.48;1761540;80;27363;-82
2021/08/06 07:56:48;;;;;;;1.15;1.05;;;;;;;14.58;81.06;95957.88;1761363;80;25755;-82
2021/08/06 07:59:16;;;;;;;2.08;1.30;;;;;;;14.58;80.96;95949.73;1761417;80;25751;-83
2021/08/06 08:01:43;;;;;;;1.27;1.20;;;;;;;14.57;80.84;95956.25;1752272;81;25679;-83
2021/08/06 08:04:09;;;;;;;1.40;1.30;;;;;;;14.57;80.80;95949.45;1753815;81;25836;-83
2021/08/06 08:06:36;;;;;;;1.00;1.00;;;;;;;14.57;80.76;95949.45;1751778;81;27377;-82
2021/08/06 08:09:03;;;;;;;2.83;1.40;;;;;;;14.62;80.69;95954.05;1755138;81;25742;-84
2021/08/06 08:11:29;;;;;;;1.45;1.35;;;;;;;14.61;80.77;95950.52;1746876;81;25789;-83
2021/08/06 08:13:56;;;;;;;2.58;1.30;;;;;;;14.67;80.74;95957.59;1751534;80;26325;-83
2021/08/06 08:16:23;;;;;;;1.87;1.20;;;;;;;14.72;80.67;95961.69;1756429;80;25789;-83
2021/08/06 08:18:50;;;;;;;1.92;1.40;;;;;;;14.75;80.63;95958.40;1742402;80;27453;-82
2021/08/06 08:21:17;;;;;;;1.50;1.40;;;;;;;14.80;80.62;95963.56;1757955;80;25757;-82
2021/08/06 08:23:45;;;;;;;3.42;1.77;;;;;;;14.83;80.73;95957.05;1761421;80;25737;-83
2021/08/06 08:26:11;;;;;;;1.60;1.50;;;;;;;14.87;80.71;95969.53;1752834;81;25774;-80
2021/08/06 08:28:38;;;;;;;2.08;1.98;;;;;;;14.91;80.62;95969.27;1741754;80;25292;-81
2021/08/06 08:31:04;;;;;;;2.33;2.12;;;;;;;14.94;80.39;95971.44;1752977;81;27369;-84
2021/08/06 08:33:31;;;;;;;2.70;2.12;;;;;;;14.98;80.33;95977.94;1755266;81;26361;-83
2021/08/06 08:35:58;;;;;;;2.40;1.80;;;;;;;15.00;80.34;95979.30;1752416;81;25730;-82
2021/08/06 08:38:24;;;;;;;1.80;1.70;;;;;;;15.03;80.21;95976.58;1752435;80;26163;-86
2021/08/06 08:40:54;;;;;;;5.47;1.90;;;;;;;15.05;80.13;95985.28;1751861;81;25806;-82
2021/08/06 08:43:20;;;;;;;2.37;1.85;;;;;;;15.03;80.14;95984.19;1756551;80;27507;-84
2021/08/06 08:45:47;;;;;;;1.42;1.32;;;;;;;15.04;80.25;95987.18;1756979;81;25947;-83
2021/08/06 08:48:17;;;;;;;2.12;1.70;;;;;;;15.04;80.22;95990.44;1766697;80;25844;-84
2021/08/06 08:50:43;;;;;;;1.92;1.80;;;;;;;15.02;80.27;95992.61;1762342;80;25691;-83
2021/08/06 08:53:11;;;;;;;2.95;2.25;;;;;;;15.01;80.25;96004.56;1762405;80;25714;-83
2021/08/06 08:55:39;;;;;;;3.33;1.90;;;;;;;15.00;80.42;96001.03;1761637;80;27403;-85
2021/08/06 08:58:07;;;;;;;2.83;2.10;;;;;;;15.00;80.47;95998.86;1762290;80;26621;-82
2021/08/06 09:00:35;;;;;;;2.37;1.85;;;;;;;15.00;80.57;96009.19;1762271;80;25761;-83
2021/08/06 09:03:01;;;;;;;2.62;2.20;;;;;;;14.96;80.64;96016.27;1771340;79;25685;-86
2021/08/06 09:05:28;;;;;;;10.75;5.72;;;;;;;14.94;80.54;96010.84;1770970;78;26071;-82
2021/08/06 09:07:57;;;;;;;8.20;5.40;;;;;;;14.97;80.77;96011.66;1771497;79;27382;-83
2021/08/06 09:10:30;;;;;;;4.25;3.85;;;;;;;14.99;80.52;96011.62;1762091;79;26348;-83
2021/08/06 09:13:03;;;;;;;3.30;2.80;;;;;;;15.01;80.43;96029.84;1738859;80;25277;-86
2021/08/06 09:15:55;;;;;;;3.10;2.85;;;;;;;14.98;80.18;96024.94;1766827;79;26475;-86
2021/08/06 09:18:39;;;;;;;3.50;3.20;;;;;;;14.94;80.09;96028.49;1744884;80;25697;-82
2021/08/06 09:21:19;;;;;;;5.95;3.50;;;;;;;14.92;80.10;96025.23;1744684;80;28355;-85
2021/08/06 09:23:56;;;;;;;4.33;3.30;;;;;;;14.93;80.08;96027.68;1759297;80;26533;-82
2021/08/06 09:26:44;;;;;;;3.62;3.20;;;;;;;14.95;80.03;96033.66;1762474;80;25778;-83
2021/08/06 09:29:21;;;;;;;5.03;2.87;;;;;;;15.01;80.06;96030.38;1762344;80;25938;-83
2021/08/06 09:32:00;;;;;;;5.22;3.00;;;;;;;15.06;79.88;96026.31;1771649;78;25770;-82
2021/08/06 09:34:35;;;;;;;4.35;3.00;;;;;;;15.13;79.80;96030.37;1770277;78;28512;-83
2021/08/06 09:37:18;;;;;;;3.52;3.22;;;;;;;15.19;79.65;96026.30;1768488;78;25769;-83
2021/08/06 09:39:54;;;;;;;3.75;3.45;;;;;;;15.27;79.71;96025.20;1770037;79;25790;-81
2021/08/06 09:42:35;;;;;;;3.77;3.47;;;;;;;15.40;79.96;96023.27;1753440;79;25796;-84
2021/08/06 09:45:14;;;;;;;4.08;3.72;;;;;;;15.57;79.95;96020.28;1760520;80;26458;-86
2021/08/06 09:47:40;;;;;;;4.58;3.70;;;;;;;15.72;79.90;96026.20;1757259;80;27403;-84
2021/08/06 09:50:15;;;;;;;4.67;3.00;;;;;;;15.87;79.85;96020.72;1744621;80;25788;-87
2021/08/06 09:52:49;;;;;;;3.95;3.50;;;;;;;15.95;79.31;96024.75;1754786;80;25932;-85
2021/08/06 09:55:23;;;;;;;3.45;3.12;;;;;;;15.92;78.90;96022.06;1761873;80;25724;-84
2021/08/06 09:57:51;;;;;;;4.72;3.22;;;;;;;15.86;78.52;96027.25;1749666;80;25735;-83
2021/08/06 10:00:21;;;;;;;5.37;3.27;;;;;;;15.85;78.22;96026.97;1737452;80;27377;-83
2021/08/06 10:02:48;;;;;;;4.37;3.10;;;;;;;15.87;78.30;96035.68;1752601;80;25725;-85
2021/08/06 10:05:19;;;;;;;4.78;3.62;;;;;;;15.83;78.11;96034.59;1750821;81;25877;-82
2021/08/06 10:07:52;;;;;;;6.40;3.40;;;;;;;15.81;78.16;96035.45;1739722;80;26357;-83
2021/08/06 10:10:26;;;;;;;3.90;3.50;;;;;;;15.79;78.07;96038.44;1760893;80;25675;-83
2021/08/06 10:12:54;;;;;;;4.33;3.50;;;;;;;15.79;78.08;96037.63;1739903;80;27482;-85
2021/08/06 10:15:23;;;;;;;4.00;3.60;;;;;;;15.77;77.84;96033.00;1730925;82;25814;-86
2021/08/06 10:17:52;;;;;;;5.08;3.60;;;;;;;15.77;77.73;96035.72;1759924;80;25690;-81
2021/08/06 10:20:22;;;;;;;6.17;4.05;;;;;;;15.80;77.73;96033.81;1727724;82;26227;-84
2021/08/06 10:22:51;;;;;;;4.05;3.65;;;;;;;15.82;77.70;96042.48;1757438;80;26069;-84
2021/08/06 10:25:21;;;;;;;6.95;4.25;;;;;;;15.83;77.60;96049.56;1731053;82;26828;-84
2021/08/06 10:27:50;;;;;;;7.40;4.85;;;;;;;15.82;77.71;96046.56;1756175;80;26341;-84
2021/08/06 10:30:30;;;;;;;3.92;3.60;;;;;;;15.81;77.75;96047.14;1731136;82;25719;-83
2021/08/06 10:33:29;;;;;;;5.53;4.03;;;;;;;15.88;77.83;96052.28;1760240;80;25672;-87
2021/08/06 10:36:04;;;;;;;3.52;3.22;;;;;;;15.90;77.79;96051.45;1758937;80;25758;-85
2021/08/06 10:38:39;;;;;;;4.53;4.12;;;;;;;15.96;77.53;96054.95;1726069;81;27448;-85
2021/08/06 10:41:16;;;;;;;4.03;3.60;;;;;;;16.10;77.81;96060.89;1760229;80;25758;-83
2021/08/06 10:43:51;;;;;;;4.65;4.25;;;;;;;16.34;77.83;96056.16;1741605;81;26078;-84
2021/08/06 10:46:20;;;;;;;5.05;3.75;;;;;;;16.48;77.57;96063.98;1746912;82;25750;-85
2021/08/06 10:48:50;;;;;;;3.80;3.40;;;;;;;16.58;77.30;96066.64;1760178;80;25699;-84
2021/08/06 10:51:21;;;;;;;3.80;3.40;;;;;;;16.63;76.94;96073.47;1758489;80;27369;-84
2021/08/06 10:54:03;;;;;;;3.87;3.50;;;;;;;16.68;76.52;96065.79;1760826;80;25849;-86
2021/08/06 10:56:36;;;;;;;4.47;3.15;;;;;;;16.82;76.68;96056.70;1780405;79;25761;-84
2021/08/06 10:59:12;;;;;;;3.40;3.10;;;;;;;16.98;76.46;96060.14;1761132;80;27122;-84
2021/08/06 11:01:45;;;;;;;3.27;2.98;;;;;;;17.11;76.29;96061.41;1760046;80;25737;-85
2021/08/06 11:04:17;;;;;;;3.12;2.70;;;;;;;17.16;75.98;96055.34;1743910;80;27373;-86
2021/08/06 11:06:55;;;;;;;3.40;2.45;;;;;;;17.23;75.51;96063.21;1780217;79;34871;-87
2021/08/06 11:09:30;;;;;;;2.80;2.58;;;;;;;17.19;75.12;96060.78;1760002;80;25830;-84
2021/08/06 11:12:12;;;;;;;4.90;2.87;;;;;;;17.08;74.71;96059.23;1760961;80;25816;-85
2021/08/06 11:14:48;;;;;;;4.93;2.73;;;;;;;16.90;74.27;96046.55;1761315;80;25671;-90
2021/08/06 11:17:22;;;;;;;4.40;3.30;;;;;;;16.79;74.24;96062.71;1761118;80;27363;-90
2021/08/06 11:20:11;;;;;;;10.20;3.62;;;;;;;16.72;74.32;96062.78;1760837;80;26293;-85
2021/08/06 11:22:44;;;;;;;4.80;2.95;;;;;;;16.70;74.43;96076.67;1745371;80;25709;-84
2021/08/06 11:25:24;;;;;;;3.83;3.02;;;;;;;16.63;74.57;96076.19;1756507;80;25741;-88
2021/08/06 11:27:54;;;;;;;5.15;2.87;;;;;;;16.60;74.72;96072.62;1761114;80;25738;-88
2021/08/06 11:30:30;;;;;;;3.10;2.77;;;;;;;16.53;74.64;96077.58;1761099;80;27370;-88
2021/08/06 11:33:04;;;;;;;4.45;3.10;;;;;;;16.46;74.65;96075.70;1739574;80;25661;-88
2021/08/06 11:35:40;;;;;;;5.83;2.85;;;;;;;16.40;74.70;96079.55;1761027;80;26197;-84
2021/08/06 11:38:16;;;;;;;4.95;3.00;;;;;;;16.35;74.76;96078.20;1757208;80;25771;-88
2021/08/06 11:40:50;;;;;;;3.12;2.77;;;;;;;16.31;74.82;96083.94;1760641;80;25749;-85
2021/08/06 11:43:31;;;;;;;4.92;3.10;;;;;;;16.29;74.88;96088.33;1747771;80;28930;-86
2021/08/06 11:46:15;;;;;;;4.37;3.12;;;;;;;16.23;74.71;96091.33;1755700;80;25872;-88